createdAt,value
2018-12-24T00:00:52.642Z,99.90
2018-12-24T00:03:34.056Z,99.90
2018-12-24T00:06:22.283Z,99.90
2018-12-24T00:09:04.074Z,99.90
2018-12-24T00:11:51.873Z,99.90
2018-12-24T00:14:32.912Z,99.90
2018-12-24T00:17:20.703Z,99.90
2018-12-24T00:20:01.205Z,99.90
2018-12-24T00:22:49.108Z,99.90
2018-12-24T00:25:29.478Z,99.90
2018-12-24T00:28:17.557Z,99.90
2018-12-24T00:30:57.621Z,99.90
2018-12-24T00:33:38.824Z,99.90
2018-12-24T00:36:26.843Z,99.90
2018-12-24T00:39:07.612Z,99.90
2018-12-24T00:41:55.552Z,99.90
2018-12-24T00:44:36.569Z,99.90
2018-12-24T00:47:24.523Z,99.90
2018-12-24T00:50:05.498Z,99.90
2018-12-24T00:52:53.407Z,99.90
2018-12-24T00:55:34.337Z,99.90
2018-12-24T00:58:22.267Z,99.90
2018-12-24T01:01:02.715Z,99.90
2018-12-24T01:03:50.705Z,99.90
2018-12-24T01:06:31.703Z,99.90
2018-12-24T01:12:25.899Z,99.90
2018-12-24T01:15:13.720Z,99.90
2018-12-24T01:18:01.678Z,99.90
2018-12-24T01:20:42.858Z,99.90
2018-12-24T01:23:30.813Z,99.90
2018-12-24T01:26:11.561Z,99.90
2018-12-24T01:28:59.525Z,99.90
2018-12-24T01:31:40.154Z,99.90
2018-12-24T01:34:28.067Z,99.90
2018-12-24T01:37:16.183Z,99.90
2018-12-24T01:39:56.731Z,99.90
2018-12-24T01:42:44.718Z,99.90
2018-12-24T01:45:25.509Z,99.90
2018-12-24T01:48:13.449Z,99.90
2018-12-24T01:50:53.962Z,99.90
2018-12-24T01:53:41.843Z,99.90
2018-12-24T01:56:22.639Z,99.90
2018-12-24T01:59:10.514Z,99.90
2018-12-24T02:01:51.627Z,99.90
2018-12-24T02:04:39.573Z,99.90
2018-12-24T02:07:19.921Z,99.90
2018-12-24T02:10:07.806Z,99.90
2018-12-24T02:12:48.845Z,99.90
2018-12-24T02:15:36.852Z,99.90
2018-12-24T02:18:17.438Z,99.90
2018-12-24T02:21:05.570Z,99.90
2018-12-24T02:23:46.013Z,99.90
2018-12-24T02:26:27.085Z,99.90
2018-12-24T02:29:14.917Z,99.90
2018-12-24T02:31:56.273Z,99.90
2018-12-24T02:34:44.238Z,99.90
2018-12-24T02:37:25.477Z,99.90
2018-12-24T02:40:13.394Z,99.90
2018-12-24T02:42:54.494Z,99.90
2018-12-24T02:45:42.510Z,99.90
2018-12-24T02:48:23.433Z,99.90
2018-12-24T02:51:11.519Z,99.90
2018-12-24T02:53:52.324Z,99.90
2018-12-24T02:56:40.267Z,99.90
2018-12-24T02:59:21.358Z,99.90
2018-12-24T03:02:09.352Z,99.90
2018-12-24T03:04:50.534Z,99.90
2018-12-24T03:07:38.565Z,99.90
2018-12-24T03:10:19.629Z,99.90
2018-12-24T03:13:07.698Z,99.90
2018-12-24T03:15:48.192Z,99.30
2018-12-24T03:18:36.176Z,99.50
2018-12-24T03:21:16.703Z,99.90
2018-12-24T03:24:04.852Z,99.90
2018-12-24T03:26:46.012Z,99.90
2018-12-24T03:32:21.613Z,99.90
2018-12-24T03:35:09.769Z,99.90
2018-12-24T03:37:51.253Z,99.90
2018-12-24T03:40:39.100Z,99.90
2018-12-24T03:43:20.069Z,99.90
2018-12-24T03:46:08.066Z,99.90
2018-12-24T03:48:49.126Z,99.90
2018-12-24T03:51:37.184Z,99.90
2018-12-24T03:54:17.646Z,99.90
2018-12-24T03:57:05.694Z,99.90
2018-12-24T03:59:46.975Z,99.60
2018-12-24T04:02:35.270Z,99.20
2018-12-24T04:05:23.197Z,99.10
2018-12-24T04:08:11.678Z,98.90
2018-12-24T04:10:54.124Z,99.00
2018-12-24T04:13:35.306Z,99.40
2018-12-24T04:16:23.586Z,98.60
2018-12-24T04:19:05.094Z,99.00
2018-12-24T04:21:53.194Z,99.60
2018-12-24T04:24:34.429Z,99.40
2018-12-24T04:27:22.322Z,99.00
2018-12-24T04:30:03.586Z,98.90
2018-12-24T04:32:51.536Z,99.30
2018-12-24T04:35:32.431Z,99.10
2018-12-24T04:38:20.432Z,98.80
2018-12-24T04:41:01.158Z,99.00
2018-12-24T04:43:49.214Z,98.70
2018-12-24T04:46:30.624Z,98.50
2018-12-24T04:49:18.517Z,98.50
2018-12-24T04:51:59.569Z,98.90
2018-12-24T04:54:47.363Z,98.40
2018-12-24T04:57:32.483Z,99.00
2018-12-24T05:00:20.342Z,97.80
2018-12-24T05:03:03.084Z,97.90
2018-12-24T05:05:50.966Z,98.20
2018-12-24T05:08:31.610Z,97.90
2018-12-24T05:11:19.515Z,98.10
2018-12-24T05:14:00.722Z,97.70
2018-12-24T05:16:42.371Z,98.20
2018-12-24T05:19:22.902Z,97.80
2018-12-24T05:22:10.705Z,98.00
2018-12-24T05:24:51.376Z,98.20
2018-12-24T05:27:39.270Z,98.30
2018-12-24T05:30:19.948Z,98.60
2018-12-24T05:33:07.772Z,98.10
2018-12-24T05:35:48.881Z,98.50
2018-12-24T05:38:36.710Z,98.10
2018-12-24T05:41:18.692Z,98.00
2018-12-24T05:44:06.678Z,98.10
2018-12-24T05:46:48.471Z,97.80
2018-12-24T05:49:36.404Z,97.60
2018-12-24T05:52:17.550Z,98.00
2018-12-24T05:55:08.425Z,97.70
2018-12-24T05:57:51.910Z,97.60
2018-12-24T06:00:39.629Z,97.90
2018-12-24T06:03:20.874Z,96.80
2018-12-24T06:06:08.603Z,96.80
2018-12-24T06:08:50.649Z,97.20
2018-12-24T06:11:38.632Z,97.00
2018-12-24T06:14:19.807Z,96.60
2018-12-24T06:17:19.819Z,96.50
2018-12-24T06:19:50.769Z,96.40
2018-12-24T06:22:38.600Z,97.00
2018-12-24T06:25:20.383Z,96.30
2018-12-24T06:28:14.004Z,95.70
2018-12-24T06:30:55.257Z,96.30
2018-12-24T06:33:43.299Z,95.80
2018-12-24T06:36:41.456Z,96.80
2018-12-24T06:39:21.257Z,95.90
2018-12-24T06:42:02.457Z,95.40
2018-12-24T06:44:50.267Z,95.20
2018-12-24T06:47:30.869Z,96.40
2018-12-24T06:50:18.602Z,96.40
2018-12-24T06:52:59.147Z,95.80
2018-12-24T06:55:46.902Z,96.50
2018-12-24T06:58:27.433Z,96.60
2018-12-24T07:01:12.310Z,97.00
2018-12-24T07:04:00.193Z,96.20
2018-12-24T07:06:40.495Z,96.20
2018-12-24T07:09:28.338Z,96.30
2018-12-24T07:12:16.112Z,96.50
2018-12-24T07:15:04.093Z,96.00
2018-12-24T07:17:45.231Z,96.00
2018-12-24T07:20:33.087Z,95.70
2018-12-24T07:23:13.496Z,96.00
2018-12-24T07:26:01.351Z,96.00
2018-12-24T07:28:41.835Z,96.10
2018-12-24T07:31:29.828Z,96.40
2018-12-24T07:34:17.584Z,96.70
2018-12-24T07:36:57.857Z,96.40
2018-12-24T07:39:45.586Z,96.80
2018-12-24T07:42:26.167Z,96.60
2018-12-24T07:45:14.006Z,97.10
2018-12-24T07:47:54.824Z,97.40
2018-12-24T07:50:42.558Z,98.60
2018-12-24T07:53:21.546Z,98.50
2018-12-24T07:56:09.310Z,98.30
2018-12-24T07:58:49.745Z,98.30
2018-12-24T08:01:37.670Z,97.90
2018-12-24T08:04:18.913Z,97.80
2018-12-24T08:07:06.660Z,97.80
2018-12-24T08:09:47.124Z,97.20
2018-12-24T08:12:34.866Z,97.80
2018-12-24T08:15:15.927Z,96.90
2018-12-24T08:18:03.764Z,97.40
2018-12-24T08:20:44.848Z,97.30
2018-12-24T08:23:32.715Z,97.40
2018-12-24T08:26:13.276Z,96.70
2018-12-24T08:29:01.151Z,97.00
2018-12-24T08:31:42.302Z,97.50
2018-12-24T08:34:30.160Z,96.90
2018-12-24T08:37:09.497Z,96.70
2018-12-24T08:39:49.922Z,97.80
2018-12-24T08:42:37.810Z,97.30
2018-12-24T08:45:18.146Z,96.90
2018-12-24T08:48:06.140Z,96.90
2018-12-24T08:50:47.219Z,96.60
2018-12-24T08:53:35.305Z,96.50
2018-12-24T08:56:15.966Z,96.10
2018-12-24T08:59:04.043Z,96.40
2018-12-24T09:01:44.947Z,96.70
2018-12-24T09:04:32.926Z,96.30
2018-12-24T09:07:13.742Z,96.30
2018-12-24T09:13:08.168Z,95.80
2018-12-24T09:15:56.132Z,95.70
2018-12-24T09:21:30.934Z,96.00
2018-12-24T09:24:18.990Z,95.10
2018-12-24T09:26:59.665Z,94.70
2018-12-24T09:29:52.633Z,94.40
2018-12-24T09:32:33.206Z,94.80
2018-12-24T09:35:21.373Z,94.20
2018-12-24T09:38:01.923Z,93.70
2018-12-24T09:41:09.179Z,94.00
2018-12-24T09:43:50.281Z,94.10
2018-12-24T09:46:40.957Z,93.50
2018-12-24T09:49:29.700Z,94.20
2018-12-24T09:52:19.897Z,93.10
2018-12-24T09:55:10.825Z,93.10
2018-12-24T10:01:04.735Z,93.10
2018-12-24T10:07:42.727Z,93.60
2018-12-24T10:10:31.140Z,94.30
2018-12-24T10:16:35.375Z,94.60
2018-12-24T10:19:42.602Z,95.00
2018-12-24T10:22:25.106Z,95.40
2018-12-24T10:28:18.151Z,94.60
2018-12-24T10:31:06.091Z,94.40
2018-12-24T10:34:06.658Z,95.10
2018-12-24T10:36:42.412Z,94.60
2018-12-24T10:39:23.431Z,94.70
2018-12-24T10:42:11.516Z,94.20
2018-12-24T10:44:57.488Z,94.30
2018-12-24T10:48:04.602Z,93.90
2018-12-24T10:50:45.365Z,94.10
2018-12-24T10:53:33.165Z,93.70
2018-12-24T10:56:14.418Z,93.50
2018-12-24T10:59:02.185Z,93.20
2018-12-24T11:01:44.719Z,93.70
2018-12-24T11:04:32.696Z,92.90
2018-12-24T11:07:13.448Z,93.20
2018-12-24T11:10:01.222Z,94.50
2018-12-24T11:12:42.105Z,94.10
2018-12-24T11:15:29.836Z,93.60
2018-12-24T11:18:10.260Z,92.20
2018-12-24T11:20:50.723Z,90.70
2018-12-24T11:23:38.600Z,90.80
2018-12-24T11:26:19.659Z,90.30
2018-12-24T11:29:00.300Z,95.60
2018-12-24T11:31:48.034Z,96.30
2018-12-24T11:34:29.315Z,93.40
2018-12-24T11:37:17.179Z,90.00
2018-12-24T11:39:57.667Z,94.30
2018-12-24T11:42:45.443Z,94.30
2018-12-24T11:45:33.718Z,94.60
2018-12-24T11:48:16.286Z,96.00
2018-12-24T11:51:05.057Z,93.80
2018-12-24T11:53:52.833Z,90.30
2018-12-24T11:56:33.486Z,90.10
2018-12-24T11:59:21.392Z,84.10
2018-12-24T12:02:09.756Z,89.20
2018-12-24T12:04:52.226Z,90.70
2018-12-24T12:07:33.409Z,90.60
2018-12-24T12:13:08.006Z,91.10
2018-12-24T12:15:55.963Z,91.20
2018-12-24T12:18:36.404Z,91.50
2018-12-24T12:21:24.428Z,90.10
2018-12-24T12:24:13.988Z,90.00
2018-12-24T12:27:01.813Z,86.00
2018-12-24T12:32:56.549Z,92.10
2018-12-24T12:35:44.447Z,91.90
2018-12-24T12:38:35.244Z,92.30
2018-12-24T12:41:16.351Z,87.30
2018-12-24T12:44:05.883Z,93.00
2018-12-24T12:46:46.796Z,91.80
2018-12-24T12:49:54.523Z,92.20
2018-12-24T12:52:35.029Z,92.40
2018-12-24T12:55:22.916Z,89.20
2018-12-24T12:58:03.406Z,90.50
2018-12-24T13:00:51.276Z,86.30
2018-12-24T13:03:32.048Z,85.20
2018-12-24T13:06:19.918Z,80.10
2018-12-24T13:09:00.297Z,85.60
2018-12-24T13:11:48.112Z,89.50
2018-12-24T13:14:29.318Z,87.20
2018-12-24T13:17:17.126Z,76.00
2018-12-24T13:19:58.223Z,85.70
2018-12-24T13:22:46.007Z,79.40
2018-12-24T13:25:27.030Z,68.70
2018-12-24T13:28:14.986Z,73.80
2018-12-24T13:30:56.339Z,67.50
2018-12-24T13:33:44.430Z,68.20
2018-12-24T13:36:27.212Z,70.80
2018-12-24T13:39:14.977Z,75.70
2018-12-24T13:41:54.078Z,67.30
2018-12-24T13:44:44.449Z,70.60
2018-12-24T13:47:25.371Z,74.80
2018-12-24T13:50:15.908Z,84.20
2018-12-24T13:52:59.022Z,82.00
2018-12-24T13:55:50.931Z,81.70
2018-12-24T13:58:34.149Z,71.70
2018-12-24T14:01:27.441Z,77.90
2018-12-24T14:04:12.112Z,76.80
2018-12-24T14:07:00.127Z,69.30
2018-12-24T14:09:40.854Z,69.50
2018-12-24T14:12:47.857Z,61.70
2018-12-24T14:15:20.191Z,64.40
2018-12-24T14:18:27.643Z,76.60
2018-12-24T14:21:11.341Z,76.60
2018-12-24T14:24:01.748Z,77.00
2018-12-24T14:26:42.993Z,64.20
2018-12-24T14:29:50.325Z,60.40
2018-12-24T14:32:31.204Z,62.10
2018-12-24T14:35:19.010Z,61.20
2018-12-24T14:38:05.797Z,59.80
2018-12-24T14:40:47.114Z,67.40
2018-12-24T14:43:54.572Z,64.00
2018-12-24T14:46:35.487Z,64.60
2018-12-24T14:49:23.621Z,63.20
2018-12-24T14:52:04.270Z,68.20
2018-12-24T14:54:54.571Z,65.10
2018-12-24T14:57:35.388Z,67.50
2018-12-24T15:00:23.445Z,70.50
2018-12-24T15:03:06.415Z,72.00
2018-12-24T15:06:08.452Z,72.10
2018-12-24T15:08:38.938Z,70.90
2018-12-24T15:11:40.724Z,72.30
2018-12-24T15:14:11.469Z,72.40
2018-12-24T15:17:01.581Z,72.60
2018-12-24T15:19:45.181Z,72.50
2018-12-24T15:23:09.933Z,73.90
2018-12-24T15:25:38.757Z,73.70
2018-12-24T15:28:26.633Z,73.60
2018-12-24T15:31:07.455Z,75.50
2018-12-24T15:33:55.422Z,76.70
2018-12-24T15:36:36.273Z,77.40
2018-12-24T15:39:24.140Z,76.80
2018-12-24T15:42:05.304Z,77.40
2018-12-24T15:44:53.292Z,77.00
2018-12-24T15:47:36.183Z,77.50
2018-12-24T15:50:23.908Z,78.30
2018-12-24T15:53:06.113Z,79.70
2018-12-24T15:55:54.084Z,79.90
2018-12-24T15:58:35.037Z,80.90
2018-12-24T16:01:23.005Z,80.20
2018-12-24T16:04:04.055Z,78.70
2018-12-24T16:06:51.893Z,79.40
2018-12-24T16:09:32.904Z,79.30
2018-12-24T16:12:20.937Z,79.60
2018-12-24T16:15:02.378Z,78.90
2018-12-24T16:17:50.303Z,80.50
2018-12-24T16:20:31.005Z,79.80
2018-12-24T16:23:18.941Z,80.00
2018-12-24T16:26:00.084Z,79.90
2018-12-24T16:28:48.044Z,79.70
2018-12-24T16:31:28.506Z,80.50
2018-12-24T16:34:16.466Z,79.40
2018-12-24T16:36:57.737Z,81.80
2018-12-24T16:39:45.756Z,81.90
2018-12-24T16:42:27.330Z,82.70
2018-12-24T16:45:15.220Z,82.70
2018-12-24T16:47:59.739Z,82.70
2018-12-24T16:50:41.975Z,82.00
2018-12-24T16:53:29.938Z,82.40
2018-12-24T16:56:17.960Z,82.20
2018-12-24T16:59:02.177Z,82.60
2018-12-24T17:04:47.676Z,84.20
2018-12-24T17:07:35.691Z,84.80
2018-12-24T17:10:17.172Z,83.70
2018-12-24T17:13:04.975Z,83.60
2018-12-24T17:15:46.160Z,83.40
2018-12-24T17:18:33.975Z,83.90
2018-12-24T17:21:14.685Z,84.60
2018-12-24T17:24:02.695Z,83.70
2018-12-24T17:26:41.798Z,84.10
2018-12-24T17:29:29.663Z,84.60
2018-12-24T17:32:10.235Z,84.40
2018-12-24T17:34:58.059Z,83.90
2018-12-24T17:37:38.746Z,84.30
2018-12-24T17:40:26.810Z,84.40
2018-12-24T17:43:07.689Z,83.40
2018-12-24T17:45:55.758Z,84.50
2018-12-24T17:48:36.038Z,83.90
2018-12-24T17:51:16.946Z,83.00
2018-12-24T17:54:05.065Z,83.80
2018-12-24T17:56:48.764Z,84.00
2018-12-24T18:02:49.274Z,84.90
2018-12-24T18:08:49.083Z,85.60
2018-12-24T18:11:38.760Z,84.90
2018-12-24T18:17:33.062Z,85.50
2018-12-24T18:20:27.106Z,85.50
2018-12-24T18:23:08.625Z,85.60
2018-12-24T18:26:17.777Z,87.40
2018-12-24T18:28:59.317Z,86.10
2018-12-24T18:31:47.572Z,86.10
2018-12-24T18:34:28.666Z,86.60
2018-12-24T18:37:18.973Z,86.80
2018-12-24T18:40:04.051Z,86.50
2018-12-24T18:42:52.044Z,86.60
2018-12-24T18:45:32.609Z,85.90
2018-12-24T18:48:20.517Z,87.00
2018-12-24T18:51:01.005Z,87.40
2018-12-24T18:53:48.983Z,87.40
2018-12-24T18:56:29.634Z,88.90
2018-12-24T18:59:17.459Z,87.70
2018-12-24T19:01:59.076Z,86.80
2018-12-24T19:04:48.100Z,87.30
2018-12-24T19:07:29.707Z,87.10
2018-12-24T19:10:17.510Z,86.70
2018-12-24T19:13:01.325Z,87.00
2018-12-24T19:16:00.974Z,87.40
2018-12-24T19:18:32.300Z,86.50
2018-12-24T19:21:20.169Z,86.50
2018-12-24T19:24:01.459Z,86.00
2018-12-24T19:26:49.336Z,86.50
2018-12-24T19:29:30.301Z,86.00
2018-12-24T19:32:18.136Z,86.10
2018-12-24T19:34:59.313Z,86.40
2018-12-24T19:37:47.500Z,86.30
2018-12-24T19:40:28.533Z,86.00
2018-12-24T19:43:16.344Z,86.30
2018-12-24T19:45:57.001Z,86.10
2018-12-24T19:48:44.855Z,87.10
2018-12-24T19:51:25.619Z,87.40
2018-12-24T19:54:53.791Z,87.30
2018-12-24T19:57:41.596Z,87.20
2018-12-24T20:00:22.257Z,86.60
2018-12-24T20:06:06.692Z,85.40
2018-12-24T20:08:54.801Z,86.20
2018-12-24T20:11:35.523Z,86.30
2018-12-24T20:14:23.428Z,86.30
2018-12-24T20:17:04.061Z,86.60
2018-12-24T20:19:51.832Z,86.60
2018-12-24T20:22:33.210Z,86.60
2018-12-24T20:25:21.017Z,87.00
2018-12-24T20:28:01.636Z,86.10
2018-12-24T20:30:49.693Z,88.10
2018-12-24T20:33:32.630Z,87.60
2018-12-24T20:36:20.811Z,88.20
2018-12-24T20:39:02.035Z,87.80
2018-12-24T20:41:49.809Z,87.90
2018-12-24T20:44:30.341Z,88.40
2018-12-24T20:47:18.128Z,87.70
2018-12-24T20:49:59.885Z,87.80
2018-12-24T20:55:52.826Z,88.60
2018-12-24T20:58:40.593Z,88.30
2018-12-24T21:01:21.949Z,88.40
2018-12-24T21:04:09.850Z,89.30
2018-12-24T21:06:50.826Z,88.10
2018-12-24T21:09:38.980Z,87.80
2018-12-24T21:12:20.408Z,88.50
2018-12-24T21:15:08.338Z,88.30
2018-12-24T21:17:52.567Z,90.30
2018-12-24T21:20:43.348Z,91.00
2018-12-24T21:23:24.081Z,90.90
2018-12-24T21:26:12.249Z,90.60
2018-12-24T21:29:02.519Z,89.50
2018-12-24T21:31:52.299Z,90.10
2018-12-24T21:34:40.379Z,90.30
2018-12-24T21:37:21.678Z,90.60
2018-12-24T21:40:09.946Z,90.10
2018-12-24T21:42:55.047Z,90.60
2018-12-24T21:45:36.410Z,90.40
2018-12-24T21:48:24.243Z,90.40
2018-12-24T21:51:24.480Z,89.30
2018-12-24T21:53:54.955Z,90.60
2018-12-24T21:59:32.856Z,90.40
2018-12-24T22:02:20.904Z,90.30
2018-12-24T22:11:02.477Z,90.10
2018-12-24T22:13:50.846Z,90.30
2018-12-24T22:16:34.543Z,90.30
2018-12-24T22:19:22.921Z,90.30
2018-12-24T22:22:04.231Z,90.70
2018-12-24T22:24:54.491Z,90.60
2018-12-24T22:28:38.245Z,90.30
2018-12-24T22:34:25.371Z,90.40
2018-12-24T22:37:05.968Z,90.50
2018-12-24T22:43:18.470Z,90.20
2018-12-24T22:46:02.155Z,90.10
2018-12-24T22:48:40.946Z,90.30
2018-12-24T22:51:29.656Z,90.40
2018-12-24T22:54:10.764Z,90.50
2018-12-24T22:56:58.820Z,90.20
2018-12-24T22:59:42.167Z,90.40
2018-12-24T23:05:58.766Z,90.30
2018-12-24T23:08:46.946Z,90.50
2018-12-24T23:12:06.579Z,91.00
2018-12-24T23:14:36.875Z,91.00
2018-12-24T23:20:28.007Z,90.10
2018-12-24T23:23:16.396Z,90.00
2018-12-24T23:25:55.690Z,90.50
2018-12-24T23:28:36.776Z,90.70
2018-12-24T23:31:24.984Z,90.60
2018-12-24T23:34:06.451Z,90.40
2018-12-24T23:36:54.881Z,90.70
2018-12-24T23:39:40.304Z,90.70
2018-12-24T23:42:28.420Z,90.20
2018-12-24T23:45:12.905Z,90.00
2018-12-24T23:47:54.008Z,90.00
2018-12-24T23:50:41.852Z,89.70
2018-12-24T23:53:23.068Z,89.80
2018-12-24T23:59:14.604Z,90.30
